AAL200A KSAF-KBRO
Flight info
| Callsign | AAL200A |
|---|---|
| Flight time | 1h 35m |
| Altitude | 37000 |
| Route | TAFOY3 ACH HOB RAKES HFMAN BRO |
| Aircraft | B738/M-SDE2E3FGHIRWXY/LB1 |
Departure
| Time | 2026-04-29 23:09 |
|---|---|
| Airport | Santa Fe Municipal Airport (KSAF) |
Arrival
| Time | 2026-04-30 00:45 |
|---|---|
| Airport | Brownsville South Padre Island International Airport (KBRO) |
| Time | Latitude | Longitude | Altitude | Speed | Heading |
|---|---|---|---|---|---|
| 2026-04-29 22:57 | 35.61809 | -106.08532 | 6317 ft | 0 kts | 125° |
| 2026-04-29 23:02 | 35.61810 | -106.08534 | 6316 ft | 1 kts | 126° |
| 2026-04-29 23:02 | 35.61816 | -106.08543 | 6317 ft | 1 kts | 125° |
| 2026-04-29 23:02 | 35.61822 | -106.08559 | 6317 ft | 2 kts | 97° |
| 2026-04-29 23:03 | 35.61821 | -106.08578 | 6317 ft | 2 kts | 71° |
| 2026-04-29 23:03 | 35.61814 | -106.08594 | 6316 ft | 2 kts | 44° |
| 2026-04-29 23:03 | 35.61801 | -106.08603 | 6316 ft | 2 kts | 18° |
| 2026-04-29 23:03 | 35.61788 | -106.08605 | 6315 ft | 1 kts | 353° |
| 2026-04-29 23:04 | 35.61781 | -106.08604 | 6315 ft | 1 kts | 347° |
| 2026-04-29 23:04 | 35.61779 | -106.08604 | 6315 ft | 0 kts | 347° |
| 2026-04-29 23:05 | 35.61780 | -106.08604 | 6315 ft | 0 kts | 348° |
| 2026-04-29 23:05 | 35.61809 | -106.08606 | 6316 ft | 7 kts | 8° |
| 2026-04-29 23:05 | 35.61868 | -106.08566 | 6318 ft | 11 kts | 35° |
| 2026-04-29 23:06 | 35.61949 | -106.08498 | 6321 ft | 16 kts | 34° |
| 2026-04-29 23:06 | 35.62056 | -106.08405 | 6325 ft | 21 kts | 34° |
| 2026-04-29 23:06 | 35.62175 | -106.08302 | 6330 ft | 20 kts | 34° |
| 2026-04-29 23:06 | 35.62285 | -106.08205 | 6334 ft | 18 kts | 35° |
| 2026-04-29 23:07 | 35.62392 | -106.08115 | 6337 ft | 17 kts | 34° |
| 2026-04-29 23:07 | 35.62491 | -106.08029 | 6339 ft | 16 kts | 36° |
| 2026-04-29 23:07 | 35.62572 | -106.07961 | 6341 ft | 12 kts | 21° |
| 2026-04-29 23:07 | 35.62658 | -106.07978 | 6341 ft | 12 kts | 340° |
| 2026-04-29 23:08 | 35.62679 | -106.08032 | 6341 ft | 7 kts | 225° |
| 2026-04-29 23:08 | 35.62585 | -106.08119 | 6339 ft | 45 kts | 214° |
| 2026-04-29 23:08 | 35.62089 | -106.08546 | 6325 ft | 127 kts | 215° |
| 2026-04-29 23:08 | 35.61165 | -106.09324 | 6300 ft | 191 kts | 213° |
| 2026-04-29 23:09 | 35.59933 | -106.10205 | 6777 ft | 215 kts | 209° |
| 2026-04-29 23:09 | 35.58492 | -106.10867 | 7674 ft | 233 kts | 196° |
| 2026-04-29 23:09 | 35.56829 | -106.10889 | 8401 ft | 256 kts | 172° |
| 2026-04-29 23:09 | 35.55147 | -106.09877 | 9034 ft | 280 kts | 144° |
| 2026-04-29 23:10 | 35.53842 | -106.08166 | 10110 ft | 279 kts | 130° |
| 2026-04-29 23:10 | 35.52774 | -106.06097 | 10726 ft | 299 kts | 119° |
| 2026-04-29 23:10 | 35.51888 | -106.03803 | 11664 ft | 303 kts | 115° |
| 2026-04-29 23:10 | 35.51020 | -106.01391 | 12383 ft | 316 kts | 116° |
| 2026-04-29 23:11 | 35.50110 | -105.98914 | 13054 ft | 329 kts | 116° |
| 2026-04-29 23:11 | 35.49117 | -105.96310 | 13694 ft | 344 kts | 117° |
| 2026-04-29 23:11 | 35.48066 | -105.93622 | 14264 ft | 360 kts | 118° |
| 2026-04-29 23:11 | 35.46952 | -105.90804 | 14836 ft | 376 kts | 118° |
| 2026-04-29 23:12 | 35.45793 | -105.87885 | 15386 ft | 392 kts | 118° |
| 2026-04-29 23:12 | 35.44567 | -105.84804 | 15888 ft | 410 kts | 118° |
| 2026-04-29 23:12 | 35.43305 | -105.81634 | 16378 ft | 426 kts | 118° |
| 2026-04-29 23:12 | 35.41991 | -105.78332 | 16827 ft | 443 kts | 118° |
| 2026-04-29 23:13 | 35.40608 | -105.74858 | 17328 ft | 457 kts | 118° |
| 2026-04-29 23:13 | 35.39211 | -105.71347 | 17882 ft | 469 kts | 118° |
| 2026-04-29 23:13 | 35.37781 | -105.67748 | 18588 ft | 477 kts | 118° |
| 2026-04-29 23:13 | 35.36312 | -105.64052 | 19325 ft | 484 kts | 118° |
| 2026-04-29 23:14 | 35.34843 | -105.60358 | 20066 ft | 490 kts | 118° |
| 2026-04-29 23:14 | 35.33334 | -105.56577 | 20740 ft | 498 kts | 118° |
| 2026-04-29 23:14 | 35.31789 | -105.52779 | 21302 ft | 507 kts | 120° |
| 2026-04-29 23:14 | 35.30181 | -105.48910 | 21995 ft | 513 kts | 120° |
| 2026-04-29 23:15 | 35.28542 | -105.45013 | 22724 ft | 517 kts | 120° |
| 2026-04-29 23:15 | 35.26901 | -105.41133 | 23189 ft | 527 kts | 120° |
| 2026-04-29 23:15 | 35.25196 | -105.37116 | 23861 ft | 531 kts | 120° |
| 2026-04-29 23:15 | 35.23494 | -105.33106 | 24252 ft | 540 kts | 121° |
| 2026-04-29 23:16 | 35.21755 | -105.29005 | 24905 ft | 544 kts | 121° |
| 2026-04-29 23:16 | 35.20003 | -105.24875 | 25342 ft | 551 kts | 122° |
| 2026-04-29 23:16 | 35.18232 | -105.20701 | 25809 ft | 557 kts | 122° |
| 2026-04-29 23:16 | 35.16467 | -105.16541 | 26291 ft | 562 kts | 121° |
| 2026-04-29 23:17 | 35.14640 | -105.12305 | 26915 ft | 561 kts | 124° |
| 2026-04-29 23:17 | 35.12663 | -105.08238 | 27651 ft | 554 kts | 129° |
| 2026-04-29 23:17 | 35.10379 | -105.04519 | 28367 ft | 543 kts | 139° |
| 2026-04-29 23:17 | 35.07813 | -105.01307 | 29003 ft | 530 kts | 148° |
| 2026-04-29 23:18 | 35.04949 | -104.98538 | 29561 ft | 520 kts | 156° |
| 2026-04-29 23:18 | 35.01925 | -104.96157 | 30001 ft | 516 kts | 160° |
| 2026-04-29 23:18 | 34.98831 | -104.93975 | 30173 ft | 523 kts | 162° |
| 2026-04-29 23:18 | 34.95672 | -104.91837 | 30921 ft | 515 kts | 163° |
| 2026-04-29 23:19 | 34.92568 | -104.89735 | 31749 ft | 508 kts | 163° |
| 2026-04-29 23:19 | 34.89520 | -104.87643 | 32555 ft | 501 kts | 163° |
| 2026-04-29 23:19 | 34.86492 | -104.85547 | 32786 ft | 508 kts | 163° |
| 2026-04-29 23:19 | 34.83372 | -104.83366 | 32955 ft | 516 kts | 162° |
| 2026-04-29 23:20 | 34.80308 | -104.81192 | 33413 ft | 517 kts | 162° |
| 2026-04-29 23:20 | 34.77238 | -104.78976 | 34176 ft | 511 kts | 162° |
| 2026-04-29 23:20 | 34.74189 | -104.76745 | 34949 ft | 505 kts | 162° |
| 2026-04-29 23:20 | 34.71215 | -104.74554 | 35713 ft | 499 kts | 162° |
| 2026-04-29 23:21 | 34.68230 | -104.72362 | 36057 ft | 500 kts | 162° |
| 2026-04-29 23:21 | 34.65289 | -104.70211 | 36438 ft | 501 kts | 163° |
| 2026-04-29 23:21 | 34.62305 | -104.68031 | 36912 ft | 497 kts | 163° |
| 2026-04-29 23:21 | 34.59334 | -104.65858 | 37107 ft | 494 kts | 163° |
| 2026-04-29 23:22 | 34.53418 | -104.61548 | 37088 ft | 495 kts | 162° |
| 2026-04-29 23:22 | 34.47525 | -104.57261 | 37087 ft | 493 kts | 162° |
| 2026-04-29 23:23 | 34.41658 | -104.52982 | 37085 ft | 488 kts | 162° |
| 2026-04-29 23:23 | 34.35781 | -104.48724 | 37089 ft | 494 kts | 163° |
| 2026-04-29 23:24 | 34.29893 | -104.44471 | 37085 ft | 495 kts | 162° |
| 2026-04-29 23:24 | 34.23991 | -104.40200 | 37082 ft | 495 kts | 162° |
| 2026-04-29 23:25 | 34.18058 | -104.35919 | 37080 ft | 498 kts | 162° |
| 2026-04-29 23:25 | 34.12138 | -104.31646 | 37074 ft | 490 kts | 162° |
| 2026-04-29 23:26 | 34.06252 | -104.27405 | 37072 ft | 492 kts | 163° |
| 2026-04-29 23:26 | 34.00397 | -104.23198 | 37074 ft | 493 kts | 163° |
| 2026-04-29 23:27 | 33.94523 | -104.18983 | 37078 ft | 491 kts | 163° |
| 2026-04-29 23:27 | 33.88689 | -104.14803 | 37073 ft | 490 kts | 162° |
| 2026-04-29 23:28 | 33.82837 | -104.10617 | 37070 ft | 486 kts | 163° |
| 2026-04-29 23:28 | 33.77058 | -104.06490 | 37077 ft | 486 kts | 162° |
| 2026-04-29 23:29 | 33.71170 | -104.02309 | 37070 ft | 494 kts | 162° |
| 2026-04-29 23:29 | 33.65354 | -103.98161 | 37080 ft | 489 kts | 161° |
| 2026-04-29 23:30 | 33.59493 | -103.94007 | 37071 ft | 489 kts | 162° |
| 2026-04-29 23:30 | 33.53618 | -103.89835 | 37083 ft | 488 kts | 162° |
| 2026-04-29 23:31 | 33.47790 | -103.85709 | 37080 ft | 491 kts | 162° |
| 2026-04-29 23:31 | 33.41919 | -103.81557 | 37079 ft | 488 kts | 161° |
| 2026-04-29 23:32 | 33.36077 | -103.77431 | 37091 ft | 493 kts | 161° |
| 2026-04-29 23:32 | 33.30156 | -103.73269 | 37091 ft | 495 kts | 162° |
| 2026-04-29 23:33 | 33.24248 | -103.69111 | 37096 ft | 495 kts | 161° |
| 2026-04-29 23:33 | 33.18263 | -103.64908 | 37089 ft | 496 kts | 160° |
| 2026-04-29 23:34 | 33.12301 | -103.60715 | 37096 ft | 495 kts | 161° |
| 2026-04-29 23:34 | 33.06363 | -103.56547 | 37085 ft | 497 kts | 160° |
| 2026-04-29 23:35 | 33.00397 | -103.52376 | 37084 ft | 498 kts | 160° |
| 2026-04-29 23:35 | 32.94429 | -103.48215 | 37074 ft | 499 kts | 160° |
| 2026-04-29 23:36 | 32.88477 | -103.44067 | 37063 ft | 501 kts | 160° |
| 2026-04-29 23:36 | 32.82471 | -103.39888 | 37061 ft | 501 kts | 160° |
| 2026-04-29 23:37 | 32.76453 | -103.35709 | 37048 ft | 505 kts | 160° |
| 2026-04-29 23:37 | 32.70393 | -103.31495 | 37039 ft | 502 kts | 160° |
| 2026-04-29 23:38 | 32.64399 | -103.27314 | 37034 ft | 504 kts | 159° |
| 2026-04-29 23:38 | 32.58530 | -103.22641 | 37035 ft | 513 kts | 154° |
| 2026-04-29 23:39 | 32.52742 | -103.17543 | 37034 ft | 518 kts | 152° |
| 2026-04-29 23:39 | 32.47037 | -103.12418 | 37039 ft | 515 kts | 152° |
| 2026-04-29 23:40 | 32.41298 | -103.07337 | 37041 ft | 518 kts | 153° |
| 2026-04-29 23:40 | 32.35506 | -103.02271 | 37037 ft | 518 kts | 153° |
| 2026-04-29 23:41 | 32.29720 | -102.97237 | 37030 ft | 518 kts | 153° |
| 2026-04-29 23:41 | 32.23911 | -102.92210 | 37023 ft | 519 kts | 152° |
| 2026-04-29 23:42 | 32.18099 | -102.87189 | 37025 ft | 521 kts | 153° |
| 2026-04-29 23:42 | 32.12278 | -102.82166 | 37012 ft | 519 kts | 152° |
| 2026-04-29 23:43 | 32.06405 | -102.77108 | 37010 ft | 522 kts | 152° |
| 2026-04-29 23:43 | 32.00565 | -102.72079 | 37013 ft | 517 kts | 152° |
| 2026-04-29 23:44 | 31.94761 | -102.67088 | 37009 ft | 518 kts | 152° |
| 2026-04-29 23:44 | 31.88937 | -102.62096 | 37007 ft | 518 kts | 152° |
| 2026-04-29 23:45 | 31.83078 | -102.57085 | 37001 ft | 521 kts | 152° |
| 2026-04-29 23:45 | 31.77232 | -102.52085 | 37001 ft | 520 kts | 152° |
| 2026-04-29 23:46 | 31.71402 | -102.47108 | 37000 ft | 518 kts | 152° |
| 2026-04-29 23:46 | 31.65564 | -102.42138 | 37003 ft | 521 kts | 152° |
| 2026-04-29 23:47 | 31.59681 | -102.37131 | 37010 ft | 522 kts | 152° |
| 2026-04-29 23:47 | 31.53828 | -102.32156 | 37000 ft | 518 kts | 152° |
| 2026-04-29 23:48 | 31.47995 | -102.27205 | 36994 ft | 521 kts | 152° |
| 2026-04-29 23:48 | 31.42112 | -102.22230 | 36986 ft | 522 kts | 152° |
| 2026-04-29 23:49 | 31.36245 | -102.17268 | 36988 ft | 519 kts | 152° |
| 2026-04-29 23:49 | 31.30381 | -102.12313 | 36981 ft | 522 kts | 153° |
| 2026-04-29 23:50 | 31.24515 | -102.07372 | 36979 ft | 520 kts | 152° |
| 2026-04-29 23:51 | 31.15686 | -101.99953 | 36962 ft | 524 kts | 152° |
| 2026-04-29 23:51 | 31.09751 | -101.94977 | 36956 ft | 525 kts | 152° |
| 2026-04-29 23:52 | 31.03821 | -101.90007 | 36957 ft | 524 kts | 152° |
| 2026-04-29 23:52 | 30.97938 | -101.85075 | 36963 ft | 521 kts | 152° |
| 2026-04-29 23:53 | 30.92057 | -101.80164 | 36973 ft | 522 kts | 152° |
| 2026-04-29 23:53 | 30.86156 | -101.75243 | 36986 ft | 525 kts | 152° |
| 2026-04-29 23:54 | 30.80220 | -101.70297 | 36994 ft | 523 kts | 152° |
| 2026-04-29 23:54 | 30.74363 | -101.65421 | 36981 ft | 520 kts | 151° |
| 2026-04-29 23:55 | 30.68445 | -101.60510 | 36966 ft | 522 kts | 152° |
| 2026-04-29 23:55 | 30.62577 | -101.55638 | 36964 ft | 521 kts | 152° |
| 2026-04-29 23:56 | 30.56711 | -101.50783 | 36954 ft | 516 kts | 152° |
| 2026-04-29 23:56 | 30.50819 | -101.45863 | 36945 ft | 524 kts | 150° |
| 2026-04-29 23:57 | 30.45079 | -101.40766 | 36942 ft | 518 kts | 148° |
| 2026-04-29 23:57 | 30.39378 | -101.35586 | 36937 ft | 524 kts | 148° |
| 2026-04-29 23:58 | 30.33648 | -101.30402 | 36940 ft | 521 kts | 149° |
| 2026-04-29 23:58 | 30.27931 | -101.25266 | 36925 ft | 518 kts | 149° |
| 2026-04-29 23:59 | 30.22242 | -101.20187 | 36922 ft | 520 kts | 149° |
| 2026-04-29 23:59 | 30.16530 | -101.15113 | 36914 ft | 520 kts | 149° |
| 2026-04-30 00:00 | 30.10803 | -101.10033 | 36909 ft | 519 kts | 149° |
| 2026-04-30 00:00 | 30.05100 | -101.04981 | 36904 ft | 517 kts | 150° |
| 2026-04-30 00:01 | 29.99410 | -100.99945 | 36903 ft | 516 kts | 149° |
| 2026-04-30 00:01 | 29.93685 | -100.94889 | 36896 ft | 515 kts | 149° |
| 2026-04-30 00:02 | 29.87965 | -100.89847 | 36900 ft | 515 kts | 150° |
| 2026-04-30 00:02 | 29.82286 | -100.84849 | 36906 ft | 521 kts | 149° |
| 2026-04-30 00:03 | 29.76549 | -100.79805 | 36908 ft | 516 kts | 149° |
| 2026-04-30 00:03 | 29.70850 | -100.74795 | 36917 ft | 517 kts | 149° |
| 2026-04-30 00:04 | 29.65136 | -100.69787 | 36907 ft | 519 kts | 149° |
| 2026-04-30 00:04 | 29.59462 | -100.64813 | 36905 ft | 515 kts | 149° |
| 2026-04-30 00:05 | 29.53738 | -100.59818 | 36882 ft | 519 kts | 149° |
| 2026-04-30 00:05 | 29.48054 | -100.54848 | 36882 ft | 512 kts | 149° |
| 2026-04-30 00:06 | 29.42373 | -100.49894 | 36877 ft | 515 kts | 149° |
| 2026-04-30 00:06 | 29.36632 | -100.44902 | 36875 ft | 518 kts | 149° |
| 2026-04-30 00:07 | 29.30923 | -100.39938 | 36859 ft | 515 kts | 148° |
| 2026-04-30 00:07 | 29.25200 | -100.34969 | 36852 ft | 515 kts | 149° |
| 2026-04-30 00:08 | 29.19511 | -100.30033 | 36843 ft | 515 kts | 149° |
| 2026-04-30 00:08 | 29.13815 | -100.25106 | 36841 ft | 516 kts | 149° |
| 2026-04-30 00:09 | 29.08046 | -100.20121 | 36827 ft | 515 kts | 149° |
| 2026-04-30 00:09 | 29.02333 | -100.15189 | 36811 ft | 517 kts | 149° |
| 2026-04-30 00:10 | 28.96648 | -100.10287 | 36806 ft | 513 kts | 149° |
| 2026-04-30 00:10 | 28.90924 | -100.05365 | 36804 ft | 519 kts | 149° |
| 2026-04-30 00:11 | 28.85162 | -100.00417 | 36799 ft | 517 kts | 149° |
| 2026-04-30 00:11 | 28.79415 | -99.95484 | 36796 ft | 517 kts | 149° |
| 2026-04-30 00:12 | 28.73693 | -99.90579 | 36799 ft | 517 kts | 149° |
| 2026-04-30 00:12 | 28.67936 | -99.85656 | 36802 ft | 515 kts | 149° |
| 2026-04-30 00:13 | 28.62219 | -99.80769 | 36808 ft | 515 kts | 149° |
| 2026-04-30 00:13 | 28.56475 | -99.75872 | 36811 ft | 521 kts | 149° |
| 2026-04-30 00:14 | 28.50729 | -99.70972 | 36810 ft | 516 kts | 149° |
| 2026-04-30 00:14 | 28.44970 | -99.66067 | 36803 ft | 516 kts | 149° |
| 2026-04-30 00:15 | 28.39223 | -99.61184 | 36806 ft | 519 kts | 148° |
| 2026-04-30 00:15 | 28.33482 | -99.56313 | 36805 ft | 516 kts | 148° |
| 2026-04-30 00:16 | 28.27692 | -99.51411 | 36803 ft | 517 kts | 148° |
| 2026-04-30 00:16 | 28.21940 | -99.46544 | 36805 ft | 519 kts | 148° |
| 2026-04-30 00:17 | 28.16168 | -99.41663 | 36800 ft | 518 kts | 148° |
| 2026-04-30 00:17 | 28.10413 | -99.36807 | 36797 ft | 519 kts | 148° |
| 2026-04-30 00:18 | 28.04638 | -99.31942 | 36792 ft | 516 kts | 149° |
| 2026-04-30 00:18 | 27.98863 | -99.27080 | 36791 ft | 518 kts | 148° |
| 2026-04-30 00:19 | 27.93090 | -99.22231 | 36791 ft | 515 kts | 149° |
| 2026-04-30 00:19 | 27.87395 | -99.17327 | 36803 ft | 519 kts | 147° |
| 2026-04-30 00:20 | 27.81758 | -99.12288 | 36803 ft | 516 kts | 146° |
| 2026-04-30 00:20 | 27.76129 | -99.07226 | 36802 ft | 519 kts | 146° |
| 2026-04-30 00:21 | 27.70475 | -99.02168 | 36810 ft | 516 kts | 146° |
| 2026-04-30 00:21 | 27.64880 | -98.97194 | 36813 ft | 517 kts | 146° |
| 2026-04-30 00:22 | 27.59199 | -98.92166 | 36807 ft | 516 kts | 146° |
| 2026-04-30 00:22 | 27.53521 | -98.87154 | 36718 ft | 517 kts | 146° |
| 2026-04-30 00:22 | 27.50726 | -98.84684 | 36271 ft | 508 kts | 146° |
| 2026-04-30 00:23 | 27.47973 | -98.82250 | 35717 ft | 500 kts | 146° |
| 2026-04-30 00:23 | 27.45282 | -98.79872 | 35049 ft | 495 kts | 146° |
| 2026-04-30 00:23 | 27.42587 | -98.77494 | 34300 ft | 492 kts | 146° |
| 2026-04-30 00:23 | 27.39891 | -98.75118 | 33505 ft | 489 kts | 146° |
| 2026-04-30 00:24 | 27.37217 | -98.72765 | 32692 ft | 488 kts | 146° |
| 2026-04-30 00:24 | 27.34562 | -98.70432 | 31906 ft | 489 kts | 146° |
| 2026-04-30 00:24 | 27.31875 | -98.68076 | 31068 ft | 490 kts | 145° |
| 2026-04-30 00:24 | 27.29206 | -98.65737 | 30217 ft | 490 kts | 145° |
| 2026-04-30 00:25 | 27.26513 | -98.63379 | 29326 ft | 491 kts | 144° |
| 2026-04-30 00:25 | 27.23841 | -98.61038 | 28408 ft | 492 kts | 144° |
| 2026-04-30 00:25 | 27.21125 | -98.58659 | 27448 ft | 493 kts | 144° |
| 2026-04-30 00:25 | 27.18417 | -98.56287 | 26435 ft | 494 kts | 145° |
| 2026-04-30 00:26 | 27.15727 | -98.53933 | 25393 ft | 495 kts | 145° |
| 2026-04-30 00:26 | 27.13035 | -98.51577 | 24633 ft | 488 kts | 145° |
| 2026-04-30 00:26 | 27.10399 | -98.49270 | 24044 ft | 479 kts | 145° |
| 2026-04-30 00:26 | 27.07801 | -98.46995 | 23415 ft | 475 kts | 145° |
| 2026-04-30 00:27 | 27.05130 | -98.44668 | 22760 ft | 486 kts | 145° |
| 2026-04-30 00:27 | 27.02480 | -98.42361 | 22094 ft | 482 kts | 145° |
| 2026-04-30 00:27 | 26.99880 | -98.40093 | 21437 ft | 473 kts | 145° |
| 2026-04-30 00:27 | 26.97304 | -98.37845 | 20783 ft | 465 kts | 144° |
| 2026-04-30 00:28 | 26.94762 | -98.35628 | 20117 ft | 457 kts | 144° |
| 2026-04-30 00:28 | 26.92276 | -98.33461 | 19533 ft | 448 kts | 145° |
| 2026-04-30 00:28 | 26.89872 | -98.31366 | 19142 ft | 433 kts | 145° |
| 2026-04-30 00:28 | 26.87530 | -98.29326 | 18940 ft | 432 kts | 145° |
| 2026-04-30 00:29 | 26.85059 | -98.27187 | 18802 ft | 451 kts | 145° |
| 2026-04-30 00:29 | 26.82597 | -98.25056 | 18610 ft | 447 kts | 145° |
| 2026-04-30 00:29 | 26.80193 | -98.22969 | 18414 ft | 429 kts | 145° |
| 2026-04-30 00:29 | 26.77870 | -98.20947 | 18264 ft | 423 kts | 145° |
| 2026-04-30 00:30 | 26.75494 | -98.18891 | 18100 ft | 443 kts | 145° |
| 2026-04-30 00:30 | 26.73052 | -98.16779 | 17896 ft | 440 kts | 145° |
| 2026-04-30 00:30 | 26.70652 | -98.14697 | 17426 ft | 430 kts | 145° |
| 2026-04-30 00:30 | 26.68314 | -98.12671 | 16721 ft | 424 kts | 144° |
| 2026-04-30 00:31 | 26.65984 | -98.10651 | 16034 ft | 417 kts | 145° |
| 2026-04-30 00:31 | 26.63734 | -98.08701 | 15415 ft | 410 kts | 145° |
| 2026-04-30 00:31 | 26.61513 | -98.06780 | 14778 ft | 403 kts | 144° |
| 2026-04-30 00:31 | 26.59319 | -98.04881 | 14147 ft | 395 kts | 144° |
| 2026-04-30 00:32 | 26.57176 | -98.03027 | 13549 ft | 387 kts | 144° |
| 2026-04-30 00:32 | 26.55069 | -98.01209 | 12941 ft | 380 kts | 145° |
| 2026-04-30 00:32 | 26.52971 | -97.99400 | 12338 ft | 382 kts | 144° |
| 2026-04-30 00:32 | 26.50850 | -97.97579 | 11713 ft | 391 kts | 144° |
| 2026-04-30 00:33 | 26.48721 | -97.95749 | 11141 ft | 382 kts | 144° |
| 2026-04-30 00:33 | 26.46654 | -97.93967 | 10805 ft | 365 kts | 144° |
| 2026-04-30 00:33 | 26.44694 | -97.92273 | 10675 ft | 345 kts | 144° |
| 2026-04-30 00:33 | 26.42861 | -97.90689 | 10605 ft | 325 kts | 144° |
| 2026-04-30 00:34 | 26.41106 | -97.89175 | 10513 ft | 308 kts | 144° |
| 2026-04-30 00:34 | 26.39460 | -97.87757 | 10382 ft | 293 kts | 144° |
| 2026-04-30 00:34 | 26.37855 | -97.86378 | 10261 ft | 299 kts | 144° |
| 2026-04-30 00:34 | 26.36181 | -97.84943 | 10069 ft | 298 kts | 144° |
| 2026-04-30 00:35 | 26.34572 | -97.83562 | 9738 ft | 292 kts | 144° |
| 2026-04-30 00:35 | 26.32975 | -97.82192 | 9323 ft | 288 kts | 144° |
| 2026-04-30 00:35 | 26.31389 | -97.80830 | 8938 ft | 283 kts | 144° |
| 2026-04-30 00:35 | 26.29861 | -97.79519 | 8584 ft | 278 kts | 144° |
| 2026-04-30 00:36 | 26.28339 | -97.78211 | 8222 ft | 273 kts | 144° |
| 2026-04-30 00:36 | 26.26835 | -97.76921 | 7868 ft | 269 kts | 144° |
| 2026-04-30 00:36 | 26.25378 | -97.75671 | 7518 ft | 265 kts | 144° |
| 2026-04-30 00:36 | 26.23918 | -97.74420 | 7176 ft | 261 kts | 144° |
| 2026-04-30 00:37 | 26.22500 | -97.73206 | 6839 ft | 257 kts | 144° |
| 2026-04-30 00:37 | 26.21084 | -97.71994 | 6497 ft | 253 kts | 145° |
| 2026-04-30 00:37 | 26.19706 | -97.70814 | 6172 ft | 250 kts | 145° |
| 2026-04-30 00:37 | 26.18332 | -97.69637 | 5844 ft | 246 kts | 144° |
| 2026-04-30 00:38 | 26.16958 | -97.68463 | 5533 ft | 257 kts | 144° |
| 2026-04-30 00:38 | 26.15535 | -97.67248 | 5174 ft | 258 kts | 144° |
| 2026-04-30 00:38 | 26.14125 | -97.66042 | 4843 ft | 254 kts | 144° |
| 2026-04-30 00:38 | 26.12729 | -97.64847 | 4507 ft | 250 kts | 143° |
| 2026-04-30 00:39 | 26.11373 | -97.63688 | 4219 ft | 243 kts | 144° |
| 2026-04-30 00:39 | 26.10049 | -97.62555 | 4090 ft | 230 kts | 144° |
| 2026-04-30 00:39 | 26.08818 | -97.61501 | 4023 ft | 216 kts | 144° |
| 2026-04-30 00:39 | 26.07666 | -97.60517 | 3964 ft | 211 kts | 144° |
| 2026-04-30 00:40 | 26.06452 | -97.59483 | 3762 ft | 221 kts | 144° |
| 2026-04-30 00:40 | 26.05265 | -97.58431 | 3508 ft | 216 kts | 140° |
| 2026-04-30 00:40 | 26.04161 | -97.57313 | 3252 ft | 211 kts | 137° |
| 2026-04-30 00:40 | 26.03128 | -97.56214 | 2991 ft | 205 kts | 136° |
| 2026-04-30 00:41 | 26.02123 | -97.55108 | 2735 ft | 198 kts | 136° |
| 2026-04-30 00:41 | 26.01172 | -97.54048 | 2501 ft | 193 kts | 136° |
| 2026-04-30 00:41 | 26.00239 | -97.53006 | 2288 ft | 186 kts | 136° |
| 2026-04-30 00:41 | 25.99354 | -97.52018 | 2266 ft | 169 kts | 136° |
| 2026-04-30 00:42 | 25.98552 | -97.51131 | 2273 ft | 158 kts | 137° |
| 2026-04-30 00:42 | 25.97743 | -97.50313 | 2268 ft | 154 kts | 138° |
| 2026-04-30 00:42 | 25.96997 | -97.49526 | 2299 ft | 146 kts | 136° |
| 2026-04-30 00:42 | 25.96285 | -97.48732 | 2263 ft | 141 kts | 135° |
| 2026-04-30 00:43 | 25.95609 | -97.47972 | 2266 ft | 134 kts | 136° |
| 2026-04-30 00:43 | 25.94984 | -97.47226 | 2269 ft | 133 kts | 129° |
| 2026-04-30 00:43 | 25.94351 | -97.46418 | 2286 ft | 140 kts | 136° |
| 2026-04-30 00:43 | 25.93629 | -97.45679 | 2057 ft | 144 kts | 138° |
| 2026-04-30 00:44 | 25.92858 | -97.44864 | 1154 ft | 170 kts | 135° |
| 2026-04-30 00:44 | 25.92027 | -97.43930 | 492 ft | 172 kts | 136° |
| 2026-04-30 00:44 | 25.91180 | -97.43008 | 36 ft | 163 kts | 136° |
| 2026-04-30 00:44 | 25.90545 | -97.42325 | 23 ft | 84 kts | 136° |
| 2026-04-30 00:45 | 25.90289 | -97.42045 | 23 ft | 32 kts | 136° |
| 2026-04-30 00:45 | 25.90177 | -97.41949 | 23 ft | 12 kts | 181° |
| 2026-04-30 00:45 | 25.90157 | -97.41973 | 23 ft | 0 kts | 258° |
| 2026-04-30 00:45 | 25.90156 | -97.41978 | 23 ft | 3 kts | 259° |
| 2026-04-30 00:46 | 25.90154 | -97.42022 | 22 ft | 7 kts | 271° |
| 2026-04-30 00:46 | 25.90156 | -97.42073 | 22 ft | 6 kts | 272° |
| 2026-04-30 00:46 | 25.90157 | -97.42123 | 22 ft | 7 kts | 271° |
| 2026-04-30 00:46 | 25.90160 | -97.42179 | 22 ft | 7 kts | 280° |
| 2026-04-30 00:47 | 25.90198 | -97.42236 | 22 ft | 12 kts | 316° |
| 2026-04-30 00:47 | 25.90276 | -97.42320 | 22 ft | 17 kts | 317° |
| 2026-04-30 00:47 | 25.90368 | -97.42423 | 22 ft | 18 kts | 313° |
| 2026-04-30 00:47 | 25.90417 | -97.42558 | 22 ft | 20 kts | 274° |
| 2026-04-30 00:48 | 25.90423 | -97.42725 | 22 ft | 21 kts | 272° |
| 2026-04-30 00:48 | 25.90428 | -97.42879 | 22 ft | 18 kts | 271° |
| 2026-04-30 00:48 | 25.90430 | -97.43019 | 22 ft | 16 kts | 275° |
| 2026-04-30 00:48 | 25.90523 | -97.43066 | 22 ft | 15 kts | 4° |
| 2026-04-30 00:49 | 25.90620 | -97.43066 | 22 ft | 10 kts | 342° |
| 2026-04-30 00:49 | 25.90643 | -97.43118 | 22 ft | 1 kts | 275° |